sensor_id;sensor_type;location;lat;lon;timestamp;P1;durP1;ratioP1;P2;durP2;ratioP2
5245;SDS011;54412;51.206;6.888;2023-02-15T00:01:39;27.23;;;20.40;;
5245;SDS011;54412;51.206;6.888;2023-02-15T00:04:06;32.93;;;22.27;;
5245;SDS011;54412;51.206;6.888;2023-02-15T00:06:34;30.93;;;20.20;;
5245;SDS011;54412;51.206;6.888;2023-02-15T00:09:00;28.47;;;20.77;;
5245;SDS011;54412;51.206;6.888;2023-02-15T00:11:27;27.67;;;19.97;;
5245;SDS011;54412;51.206;6.888;2023-02-15T00:14:06;26.60;;;18.47;;
5245;SDS011;54412;51.206;6.888;2023-02-15T00:16:35;29.73;;;20.83;;
5245;SDS011;54412;51.206;6.888;2023-02-15T00:19:02;30.47;;;19.23;;
5245;SDS011;54412;51.206;6.888;2023-02-15T00:21:29;31.27;;;20.63;;
5245;SDS011;54412;51.206;6.888;2023-02-15T00:23:58;30.97;;;20.27;;
5245;SDS011;54412;51.206;6.888;2023-02-15T00:26:26;28.17;;;19.87;;
5245;SDS011;54412;51.206;6.888;2023-02-15T00:28:52;28.80;;;19.80;;
5245;SDS011;54412;51.206;6.888;2023-02-15T00:31:19;32.57;;;22.03;;
5245;SDS011;54412;51.206;6.888;2023-02-15T00:33:45;29.70;;;20.43;;
5245;SDS011;54412;51.206;6.888;2023-02-15T00:36:11;27.50;;;20.07;;
5245;SDS011;54412;51.206;6.888;2023-02-15T00:38:37;29.90;;;21.83;;
5245;SDS011;54412;51.206;6.888;2023-02-15T00:41:05;37.77;;;22.10;;
5245;SDS011;54412;51.206;6.888;2023-02-15T00:43:32;29.87;;;21.40;;
5245;SDS011;54412;51.206;6.888;2023-02-15T00:46:00;27.00;;;19.03;;
5245;SDS011;54412;51.206;6.888;2023-02-15T00:48:27;29.17;;;20.83;;
5245;SDS011;54412;51.206;6.888;2023-02-15T00:50:54;36.37;;;22.10;;
5245;SDS011;54412;51.206;6.888;2023-02-15T00:53:23;29.40;;;20.60;;
5245;SDS011;54412;51.206;6.888;2023-02-15T00:55:51;28.27;;;19.47;;
5245;SDS011;54412;51.206;6.888;2023-02-15T00:58:17;26.67;;;20.50;;
5245;SDS011;54412;51.206;6.888;2023-02-15T01:00:43;29.87;;;21.63;;
5245;SDS011;54412;51.206;6.888;2023-02-15T01:03:11;31.63;;;21.20;;
5245;SDS011;54412;51.206;6.888;2023-02-15T01:05:40;31.07;;;21.97;;
5245;SDS011;54412;51.206;6.888;2023-02-15T01:08:05;33.83;;;22.80;;
5245;SDS011;54412;51.206;6.888;2023-02-15T01:10:32;33.67;;;23.10;;
5245;SDS011;54412;51.206;6.888;2023-02-15T01:12:59;36.30;;;23.60;;
5245;SDS011;54412;51.206;6.888;2023-02-15T01:15:25;28.47;;;21.03;;
5245;SDS011;54412;51.206;6.888;2023-02-15T01:17:51;34.83;;;21.00;;
5245;SDS011;54412;51.206;6.888;2023-02-15T01:20:18;36.23;;;23.93;;
5245;SDS011;54412;51.206;6.888;2023-02-15T01:22:47;32.60;;;21.23;;
5245;SDS011;54412;51.206;6.888;2023-02-15T01:25:14;30.20;;;22.33;;
5245;SDS011;54412;51.206;6.888;2023-02-15T01:27:44;29.60;;;20.50;;
5245;SDS011;54412;51.206;6.888;2023-02-15T01:30:11;31.43;;;22.00;;
5245;SDS011;54412;51.206;6.888;2023-02-15T01:32:38;31.00;;;21.87;;
5245;SDS011;54412;51.206;6.888;2023-02-15T01:35:04;32.67;;;21.60;;
5245;SDS011;54412;51.206;6.888;2023-02-15T01:37:32;28.70;;;20.63;;
5245;SDS011;54412;51.206;6.888;2023-02-15T01:39:59;30.10;;;21.50;;
5245;SDS011;54412;51.206;6.888;2023-02-15T01:42:26;28.13;;;20.57;;
5245;SDS011;54412;51.206;6.888;2023-02-15T01:44:55;33.57;;;22.30;;
5245;SDS011;54412;51.206;6.888;2023-02-15T01:47:44;35.57;;;21.07;;
5245;SDS011;54412;51.206;6.888;2023-02-15T01:53:13;33.90;;;21.83;;
5245;SDS011;54412;51.206;6.888;2023-02-15T01:56:08;29.90;;;21.63;;
5245;SDS011;54412;51.206;6.888;2023-02-15T01:58:42;29.17;;;21.83;;
5245;SDS011;54412;51.206;6.888;2023-02-15T02:01:08;32.53;;;22.53;;
5245;SDS011;54412;51.206;6.888;2023-02-15T02:06:23;30.43;;;21.27;;
5245;SDS011;54412;51.206;6.888;2023-02-15T02:08:51;30.43;;;22.63;;
5245;SDS011;54412;51.206;6.888;2023-02-15T02:11:18;28.50;;;21.60;;
5245;SDS011;54412;51.206;6.888;2023-02-15T02:13:44;29.97;;;21.57;;
5245;SDS011;54412;51.206;6.888;2023-02-15T02:25:16;33.20;;;21.70;;
5245;SDS011;54412;51.206;6.888;2023-02-15T02:40:06;32.17;;;22.50;;
5245;SDS011;54412;51.206;6.888;2023-02-15T02:42:37;31.53;;;22.57;;
5245;SDS011;54412;51.206;6.888;2023-02-15T02:45:13;34.87;;;22.40;;
5245;SDS011;54412;51.206;6.888;2023-02-15T02:47:50;29.03;;;21.10;;
5245;SDS011;54412;51.206;6.888;2023-02-15T02:50:26;32.17;;;22.33;;
5245;SDS011;54412;51.206;6.888;2023-02-15T02:52:55;33.30;;;23.10;;
5245;SDS011;54412;51.206;6.888;2023-02-15T02:58:05;30.97;;;22.07;;
5245;SDS011;54412;51.206;6.888;2023-02-15T03:01:37;30.10;;;21.23;;
5245;SDS011;54412;51.206;6.888;2023-02-15T03:04:13;33.47;;;21.63;;
5245;SDS011;54412;51.206;6.888;2023-02-15T03:06:47;29.73;;;21.57;;
5245;SDS011;54412;51.206;6.888;2023-02-15T03:09:29;34.37;;;22.10;;
5245;SDS011;54412;51.206;6.888;2023-02-15T03:12:09;32.07;;;22.30;;
5245;SDS011;54412;51.206;6.888;2023-02-15T03:14:36;27.00;;;19.97;;
5245;SDS011;54412;51.206;6.888;2023-02-15T03:17:05;33.40;;;21.30;;
5245;SDS011;54412;51.206;6.888;2023-02-15T03:19:33;33.70;;;23.00;;
5245;SDS011;54412;51.206;6.888;2023-02-15T03:22:04;31.83;;;22.97;;
5245;SDS011;54412;51.206;6.888;2023-02-15T03:24:41;35.07;;;22.70;;
5245;SDS011;54412;51.206;6.888;2023-02-15T03:27:27;31.77;;;22.70;;
5245;SDS011;54412;51.206;6.888;2023-02-15T03:30:02;33.97;;;23.73;;
5245;SDS011;54412;51.206;6.888;2023-02-15T03:32:31;32.17;;;22.60;;
5245;SDS011;54412;51.206;6.888;2023-02-15T03:35:01;34.73;;;23.77;;
5245;SDS011;54412;51.206;6.888;2023-02-15T03:40:19;33.87;;;23.30;;
5245;SDS011;54412;51.206;6.888;2023-02-15T03:46:23;31.57;;;22.90;;
5245;SDS011;54412;51.206;6.888;2023-02-15T03:49:02;32.37;;;22.23;;
5245;SDS011;54412;51.206;6.888;2023-02-15T03:51:40;33.70;;;21.87;;
5245;SDS011;54412;51.206;6.888;2023-02-15T03:54:15;34.07;;;23.47;;
5245;SDS011;54412;51.206;6.888;2023-02-15T03:57:03;29.60;;;21.70;;
5245;SDS011;54412;51.206;6.888;2023-02-15T03:59:51;29.60;;;21.40;;
5245;SDS011;54412;51.206;6.888;2023-02-15T04:02:38;33.07;;;22.57;;
5245;SDS011;54412;51.206;6.888;2023-02-15T04:05:11;34.07;;;22.57;;
5245;SDS011;54412;51.206;6.888;2023-02-15T04:07:36;32.33;;;23.47;;
5245;SDS011;54412;51.206;6.888;2023-02-15T04:10:02;30.63;;;21.60;;
5245;SDS011;54412;51.206;6.888;2023-02-15T04:12:46;33.37;;;21.80;;
5245;SDS011;54412;51.206;6.888;2023-02-15T04:15:12;33.83;;;22.47;;
5245;SDS011;54412;51.206;6.888;2023-02-15T04:17:57;33.23;;;22.50;;
5245;SDS011;54412;51.206;6.888;2023-02-15T04:20:22;31.83;;;22.70;;
5245;SDS011;54412;51.206;6.888;2023-02-15T04:23:07;37.97;;;22.50;;
5245;SDS011;54412;51.206;6.888;2023-02-15T04:25:51;28.73;;;21.63;;
5245;SDS011;54412;51.206;6.888;2023-02-15T04:28:17;32.43;;;23.57;;
5245;SDS011;54412;51.206;6.888;2023-02-15T04:30:42;34.57;;;23.70;;
5245;SDS011;54412;51.206;6.888;2023-02-15T04:33:08;33.80;;;23.97;;
5245;SDS011;54412;51.206;6.888;2023-02-15T04:35:34;36.33;;;23.10;;
5245;SDS011;54412;51.206;6.888;2023-02-15T04:38:00;36.10;;;23.50;;
5245;SDS011;54412;51.206;6.888;2023-02-15T04:40:25;37.03;;;24.30;;
5245;SDS011;54412;51.206;6.888;2023-02-15T04:42:51;42.40;;;24.37;;
5245;SDS011;54412;51.206;6.888;2023-02-15T04:45:17;36.13;;;24.90;;
5245;SDS011;54412;51.206;6.888;2023-02-15T04:47:43;34.13;;;23.03;;
5245;SDS011;54412;51.206;6.888;2023-02-15T04:50:09;35.27;;;23.10;;
5245;SDS011;54412;51.206;6.888;2023-02-15T04:52:35;34.40;;;23.90;;
5245;SDS011;54412;51.206;6.888;2023-02-15T04:55:01;40.17;;;24.97;;
5245;SDS011;54412;51.206;6.888;2023-02-15T04:57:27;33.10;;;23.20;;
5245;SDS011;54412;51.206;6.888;2023-02-15T04:59:52;34.50;;;23.30;;
5245;SDS011;54412;51.206;6.888;2023-02-15T05:02:18;34.70;;;23.40;;
5245;SDS011;54412;51.206;6.888;2023-02-15T05:04:44;33.53;;;22.70;;
5245;SDS011;54412;51.206;6.888;2023-02-15T05:07:09;34.57;;;24.10;;
5245;SDS011;54412;51.206;6.888;2023-02-15T05:09:35;36.30;;;23.57;;
5245;SDS011;54412;51.206;6.888;2023-02-15T05:12:01;35.43;;;23.53;;
5245;SDS011;54412;51.206;6.888;2023-02-15T05:14:27;30.90;;;22.77;;
5245;SDS011;54412;51.206;6.888;2023-02-15T05:16:52;32.90;;;21.87;;
5245;SDS011;54412;51.206;6.888;2023-02-15T05:19:19;32.23;;;22.50;;
5245;SDS011;54412;51.206;6.888;2023-02-15T05:21:44;33.50;;;23.53;;
5245;SDS011;54412;51.206;6.888;2023-02-15T05:24:10;32.77;;;21.93;;
5245;SDS011;54412;51.206;6.888;2023-02-15T05:26:54;35.03;;;22.70;;
5245;SDS011;54412;51.206;6.888;2023-02-15T05:29:39;29.73;;;21.60;;
5245;SDS011;54412;51.206;6.888;2023-02-15T05:32:04;30.97;;;21.50;;
5245;SDS011;54412;51.206;6.888;2023-02-15T05:34:30;32.10;;;22.87;;
5245;SDS011;54412;51.206;6.888;2023-02-15T05:36:56;32.53;;;23.50;;
5245;SDS011;54412;51.206;6.888;2023-02-15T05:39:21;31.47;;;21.97;;
5245;SDS011;54412;51.206;6.888;2023-02-15T05:41:47;30.50;;;20.13;;
5245;SDS011;54412;51.206;6.888;2023-02-15T05:44:13;31.23;;;21.40;;
5245;SDS011;54412;51.206;6.888;2023-02-15T05:46:38;31.90;;;22.60;;
5245;SDS011;54412;51.206;6.888;2023-02-15T05:49:04;35.30;;;23.80;;
5245;SDS011;54412;51.206;6.888;2023-02-15T05:51:30;32.97;;;22.80;;
5245;SDS011;54412;51.206;6.888;2023-02-15T05:53:55;34.60;;;22.63;;
5245;SDS011;54412;51.206;6.888;2023-02-15T05:56:21;35.30;;;23.97;;
5245;SDS011;54412;51.206;6.888;2023-02-15T05:58:47;34.03;;;22.70;;
5245;SDS011;54412;51.206;6.888;2023-02-15T06:01:16;37.47;;;23.70;;
5245;SDS011;54412;51.206;6.888;2023-02-15T06:03:44;33.97;;;23.43;;
5245;SDS011;54412;51.206;6.888;2023-02-15T06:06:11;39.57;;;23.33;;
5245;SDS011;54412;51.206;6.888;2023-02-15T06:08:37;35.50;;;22.90;;
5245;SDS011;54412;51.206;6.888;2023-02-15T06:11:03;34.87;;;22.77;;
5245;SDS011;54412;51.206;6.888;2023-02-15T06:13:30;35.80;;;21.20;;
5245;SDS011;54412;51.206;6.888;2023-02-15T06:15:56;36.73;;;23.53;;
5245;SDS011;54412;51.206;6.888;2023-02-15T06:18:22;36.70;;;22.97;;
5245;SDS011;54412;51.206;6.888;2023-02-15T06:20:48;40.87;;;22.80;;
5245;SDS011;54412;51.206;6.888;2023-02-15T06:23:13;32.63;;;21.83;;
5245;SDS011;54412;51.206;6.888;2023-02-15T06:25:39;32.37;;;23.07;;
5245;SDS011;54412;51.206;6.888;2023-02-15T06:28:05;38.93;;;25.30;;
5245;SDS011;54412;51.206;6.888;2023-02-15T06:30:31;34.67;;;23.03;;
5245;SDS011;54412;51.206;6.888;2023-02-15T06:32:57;36.90;;;24.83;;
5245;SDS011;54412;51.206;6.888;2023-02-15T06:35:22;32.50;;;22.47;;
5245;SDS011;54412;51.206;6.888;2023-02-15T06:37:48;34.97;;;21.87;;
5245;SDS011;54412;51.206;6.888;2023-02-15T06:40:14;36.47;;;23.87;;
5245;SDS011;54412;51.206;6.888;2023-02-15T06:42:41;36.10;;;23.90;;
5245;SDS011;54412;51.206;6.888;2023-02-15T06:45:07;32.40;;;22.60;;
5245;SDS011;54412;51.206;6.888;2023-02-15T06:47:34;34.80;;;24.20;;
5245;SDS011;54412;51.206;6.888;2023-02-15T06:50:00;32.13;;;21.40;;
5245;SDS011;54412;51.206;6.888;2023-02-15T06:52:26;33.13;;;23.53;;
5245;SDS011;54412;51.206;6.888;2023-02-15T06:54:53;36.20;;;23.47;;
5245;SDS011;54412;51.206;6.888;2023-02-15T06:57:18;32.17;;;22.83;;
5245;SDS011;54412;51.206;6.888;2023-02-15T06:59:44;39.13;;;23.43;;
5245;SDS011;54412;51.206;6.888;2023-02-15T07:02:11;36.10;;;23.63;;
5245;SDS011;54412;51.206;6.888;2023-02-15T07:04:37;34.70;;;22.97;;
5245;SDS011;54412;51.206;6.888;2023-02-15T07:07:03;36.63;;;23.50;;
5245;SDS011;54412;51.206;6.888;2023-02-15T07:09:29;38.93;;;23.57;;
5245;SDS011;54412;51.206;6.888;2023-02-15T07:11:55;36.77;;;25.40;;
5245;SDS011;54412;51.206;6.888;2023-02-15T07:14:39;31.40;;;20.50;;
5245;SDS011;54412;51.206;6.888;2023-02-15T07:17:05;32.13;;;22.40;;
5245;SDS011;54412;51.206;6.888;2023-02-15T07:19:31;35.17;;;24.30;;
5245;SDS011;54412;51.206;6.888;2023-02-15T07:21:57;37.60;;;22.90;;
5245;SDS011;54412;51.206;6.888;2023-02-15T07:24:23;32.60;;;22.60;;
5245;SDS011;54412;51.206;6.888;2023-02-15T07:26:48;33.80;;;22.40;;
5245;SDS011;54412;51.206;6.888;2023-02-15T07:29:14;42.67;;;22.77;;
5245;SDS011;54412;51.206;6.888;2023-02-15T07:31:40;32.03;;;22.93;;
5245;SDS011;54412;51.206;6.888;2023-02-15T07:34:10;34.63;;;24.00;;
5245;SDS011;54412;51.206;6.888;2023-02-15T07:36:36;30.97;;;22.27;;
5245;SDS011;54412;51.206;6.888;2023-02-15T07:39:02;35.20;;;22.47;;
5245;SDS011;54412;51.206;6.888;2023-02-15T07:41:28;36.63;;;23.37;;
5245;SDS011;54412;51.206;6.888;2023-02-15T07:43:53;36.90;;;24.10;;
5245;SDS011;54412;51.206;6.888;2023-02-15T07:46:19;34.63;;;22.87;;
5245;SDS011;54412;51.206;6.888;2023-02-15T07:48:46;35.23;;;24.00;;
5245;SDS011;54412;51.206;6.888;2023-02-15T07:51:12;33.90;;;22.37;;
5245;SDS011;54412;51.206;6.888;2023-02-15T07:53:39;41.37;;;22.40;;
5245;SDS011;54412;51.206;6.888;2023-02-15T07:56:07;33.60;;;23.27;;
5245;SDS011;54412;51.206;6.888;2023-02-15T07:58:36;34.57;;;21.63;;
5245;SDS011;54412;51.206;6.888;2023-02-15T08:01:21;36.50;;;23.80;;
5245;SDS011;54412;51.206;6.888;2023-02-15T08:03:51;33.60;;;22.50;;
5245;SDS011;54412;51.206;6.888;2023-02-15T08:06:18;33.70;;;22.60;;
5245;SDS011;54412;51.206;6.888;2023-02-15T08:08:45;37.67;;;22.90;;
5245;SDS011;54412;51.206;6.888;2023-02-15T08:11:15;31.20;;;21.17;;
5245;SDS011;54412;51.206;6.888;2023-02-15T08:14:02;30.30;;;21.00;;
5245;SDS011;54412;51.206;6.888;2023-02-15T08:16:34;29.10;;;20.50;;
5245;SDS011;54412;51.206;6.888;2023-02-15T08:19:17;32.97;;;21.60;;
5245;SDS011;54412;51.206;6.888;2023-02-15T08:21:55;33.60;;;22.47;;
5245;SDS011;54412;51.206;6.888;2023-02-15T08:24:29;34.00;;;21.80;;
5245;SDS011;54412;51.206;6.888;2023-02-15T08:26:58;31.03;;;20.87;;
5245;SDS011;54412;51.206;6.888;2023-02-15T08:29:27;35.13;;;21.80;;
5245;SDS011;54412;51.206;6.888;2023-02-15T08:31:56;31.27;;;19.90;;
5245;SDS011;54412;51.206;6.888;2023-02-15T08:34:36;32.10;;;19.30;;
5245;SDS011;54412;51.206;6.888;2023-02-15T08:37:05;29.37;;;19.90;;
5245;SDS011;54412;51.206;6.888;2023-02-15T08:39:31;31.23;;;19.90;;
5245;SDS011;54412;51.206;6.888;2023-02-15T08:41:58;26.07;;;17.43;;
5245;SDS011;54412;51.206;6.888;2023-02-15T08:44:23;27.70;;;19.07;;
5245;SDS011;54412;51.206;6.888;2023-02-15T08:46:49;28.87;;;18.30;;
5245;SDS011;54412;51.206;6.888;2023-02-15T08:49:17;31.70;;;18.40;;
5245;SDS011;54412;51.206;6.888;2023-02-15T08:51:45;26.63;;;18.10;;
5245;SDS011;54412;51.206;6.888;2023-02-15T08:54:14;24.53;;;17.77;;
5245;SDS011;54412;51.206;6.888;2023-02-15T08:56:44;27.27;;;18.60;;
5245;SDS011;54412;51.206;6.888;2023-02-15T08:59:15;25.33;;;18.03;;
5245;SDS011;54412;51.206;6.888;2023-02-15T09:01:46;26.67;;;19.30;;
5245;SDS011;54412;51.206;6.888;2023-02-15T09:04:14;34.00;;;18.90;;
5245;SDS011;54412;51.206;6.888;2023-02-15T09:06:41;27.53;;;18.00;;
5245;SDS011;54412;51.206;6.888;2023-02-15T09:09:09;28.70;;;18.33;;
5245;SDS011;54412;51.206;6.888;2023-02-15T09:11:37;24.93;;;17.70;;
5245;SDS011;54412;51.206;6.888;2023-02-15T09:14:10;24.43;;;17.17;;
5245;SDS011;54412;51.206;6.888;2023-02-15T09:16:48;25.70;;;17.70;;
5245;SDS011;54412;51.206;6.888;2023-02-15T09:19:16;24.30;;;16.30;;
5245;SDS011;54412;51.206;6.888;2023-02-15T09:21:44;24.63;;;16.67;;
5245;SDS011;54412;51.206;6.888;2023-02-15T09:24:11;24.97;;;16.40;;
5245;SDS011;54412;51.206;6.888;2023-02-15T09:26:40;23.63;;;15.87;;
5245;SDS011;54412;51.206;6.888;2023-02-15T09:29:09;23.80;;;15.33;;
5245;SDS011;54412;51.206;6.888;2023-02-15T09:31:38;21.60;;;15.23;;
5245;SDS011;54412;51.206;6.888;2023-02-15T09:34:13;20.20;;;15.40;;
5245;SDS011;54412;51.206;6.888;2023-02-15T09:36:42;20.40;;;15.13;;
5245;SDS011;54412;51.206;6.888;2023-02-15T09:45:05;22.70;;;15.43;;
5245;SDS011;54412;51.206;6.888;2023-02-15T09:51:07;21.17;;;13.70;;
5245;SDS011;54412;51.206;6.888;2023-02-15T09:56:48;18.43;;;13.80;;
5245;SDS011;54412;51.206;6.888;2023-02-15T09:59:36;18.30;;;13.93;;
5245;SDS011;54412;51.206;6.888;2023-02-15T10:11:37;29.03;;;12.77;;
5245;SDS011;54412;51.206;6.888;2023-02-15T10:28:18;24.60;;;14.07;;
5245;SDS011;54412;51.206;6.888;2023-02-15T10:30:52;19.43;;;13.33;;
5245;SDS011;54412;51.206;6.888;2023-02-15T10:33:38;22.27;;;13.83;;
5245;SDS011;54412;51.206;6.888;2023-02-15T10:36:08;19.73;;;13.70;;
5245;SDS011;54412;51.206;6.888;2023-02-15T10:39:02;19.07;;;13.07;;
5245;SDS011;54412;51.206;6.888;2023-02-15T10:41:56;19.60;;;13.80;;
5245;SDS011;54412;51.206;6.888;2023-02-15T10:50:49;15.70;;;11.37;;
5245;SDS011;54412;51.206;6.888;2023-02-15T10:56:14;18.80;;;12.17;;
5245;SDS011;54412;51.206;6.888;2023-02-15T11:06:21;21.30;;;12.57;;
5245;SDS011;54412;51.206;6.888;2023-02-15T11:08:21;18.20;;;12.23;;
5245;SDS011;54412;51.206;6.888;2023-02-15T11:10:54;19.70;;;12.27;;
5245;SDS011;54412;51.206;6.888;2023-02-15T11:13:27;17.13;;;12.70;;
5245;SDS011;54412;51.206;6.888;2023-02-15T11:16:01;21.10;;;12.13;;
5245;SDS011;54412;51.206;6.888;2023-02-15T11:18:51;19.13;;;12.50;;
5245;SDS011;54412;51.206;6.888;2023-02-15T11:24:13;23.07;;;13.10;;
5245;SDS011;54412;51.206;6.888;2023-02-15T11:37:44;18.27;;;12.43;;
5245;SDS011;54412;51.206;6.888;2023-02-15T11:40:22;19.27;;;12.30;;
5245;SDS011;54412;51.206;6.888;2023-02-15T11:43:07;17.23;;;12.43;;
5245;SDS011;54412;51.206;6.888;2023-02-15T11:45:46;18.00;;;11.97;;
5245;SDS011;54412;51.206;6.888;2023-02-15T11:48:13;21.70;;;13.00;;
5245;SDS011;54412;51.206;6.888;2023-02-15T11:50:41;17.67;;;12.00;;
5245;SDS011;54412;51.206;6.888;2023-02-15T11:53:12;16.63;;;12.00;;
5245;SDS011;54412;51.206;6.888;2023-02-15T11:55:43;14.60;;;11.20;;
5245;SDS011;54412;51.206;6.888;2023-02-15T12:01:02;17.43;;;12.00;;
5245;SDS011;54412;51.206;6.888;2023-02-15T12:03:52;20.93;;;12.30;;
5245;SDS011;54412;51.206;6.888;2023-02-15T12:06:52;17.73;;;11.87;;
5245;SDS011;54412;51.206;6.888;2023-02-15T12:09:55;17.00;;;10.87;;
5245;SDS011;54412;51.206;6.888;2023-02-15T12:12:32;15.40;;;11.03;;
5245;SDS011;54412;51.206;6.888;2023-02-15T12:15:01;16.87;;;11.27;;
5245;SDS011;54412;51.206;6.888;2023-02-15T12:17:32;20.53;;;12.07;;
5245;SDS011;54412;51.206;6.888;2023-02-15T12:20:27;18.03;;;10.93;;
5245;SDS011;54412;51.206;6.888;2023-02-15T12:22:59;16.10;;;10.77;;
5245;SDS011;54412;51.206;6.888;2023-02-15T12:28:18;14.47;;;10.13;;
5245;SDS011;54412;51.206;6.888;2023-02-15T12:31:03;17.47;;;11.67;;
5245;SDS011;54412;51.206;6.888;2023-02-15T12:33:54;18.00;;;12.10;;
5245;SDS011;54412;51.206;6.888;2023-02-15T12:36:34;15.33;;;10.67;;
5245;SDS011;54412;51.206;6.888;2023-02-15T12:39:19;15.50;;;10.23;;
5245;SDS011;54412;51.206;6.888;2023-02-15T12:42:15;15.43;;;11.03;;
5245;SDS011;54412;51.206;6.888;2023-02-15T12:47:23;25.43;;;12.60;;
5245;SDS011;54412;51.206;6.888;2023-02-15T12:50:24;17.43;;;11.80;;
5245;SDS011;54412;51.206;6.888;2023-02-15T12:53:02;19.00;;;11.37;;
5245;SDS011;54412;51.206;6.888;2023-02-15T12:58:21;16.20;;;11.73;;
5245;SDS011;54412;51.206;6.888;2023-02-15T13:03:33;13.00;;;9.50;;
5245;SDS011;54412;51.206;6.888;2023-02-15T13:06:02;14.33;;;10.77;;
5245;SDS011;54412;51.206;6.888;2023-02-15T13:08:53;18.83;;;11.00;;
5245;SDS011;54412;51.206;6.888;2023-02-15T13:11:39;17.90;;;10.70;;
5245;SDS011;54412;51.206;6.888;2023-02-15T13:14:30;16.50;;;11.60;;
5245;SDS011;54412;51.206;6.888;2023-02-15T13:16:58;15.97;;;10.90;;
5245;SDS011;54412;51.206;6.888;2023-02-15T13:22:14;18.57;;;10.73;;
5245;SDS011;54412;51.206;6.888;2023-02-15T13:25:19;14.90;;;11.13;;
5245;SDS011;54412;51.206;6.888;2023-02-15T13:27:51;14.93;;;10.40;;
5245;SDS011;54412;51.206;6.888;2023-02-15T13:32:57;19.40;;;11.53;;
5245;SDS011;54412;51.206;6.888;2023-02-15T13:35:30;17.17;;;10.30;;
5245;SDS011;54412;51.206;6.888;2023-02-15T13:41:19;21.30;;;11.60;;
5245;SDS011;54412;51.206;6.888;2023-02-15T13:44:03;17.70;;;12.30;;
5245;SDS011;54412;51.206;6.888;2023-02-15T13:46:50;14.80;;;10.07;;
5245;SDS011;54412;51.206;6.888;2023-02-15T13:49:46;20.73;;;10.87;;
5245;SDS011;54412;51.206;6.888;2023-02-15T13:52:20;15.53;;;10.57;;
5245;SDS011;54412;51.206;6.888;2023-02-15T13:55:01;14.80;;;10.83;;
5245;SDS011;54412;51.206;6.888;2023-02-15T14:12:41;15.53;;;10.40;;
5245;SDS011;54412;51.206;6.888;2023-02-15T14:15:35;12.90;;;9.90;;
5245;SDS011;54412;51.206;6.888;2023-02-15T14:18:14;17.40;;;10.67;;
5245;SDS011;54412;51.206;6.888;2023-02-15T14:21:16;12.43;;;9.70;;
5245;SDS011;54412;51.206;6.888;2023-02-15T14:27:22;16.80;;;10.57;;
5245;SDS011;54412;51.206;6.888;2023-02-15T14:30:13;15.90;;;10.23;;
5245;SDS011;54412;51.206;6.888;2023-02-15T14:32:48;19.60;;;11.05;;
5245;SDS011;54412;51.206;6.888;2023-02-15T14:35:23;14.80;;;10.97;;
5245;SDS011;54412;51.206;6.888;2023-02-15T14:38:06;17.17;;;10.90;;
5245;SDS011;54412;51.206;6.888;2023-02-15T14:41:04;16.20;;;10.97;;
5245;SDS011;54412;51.206;6.888;2023-02-15T14:44:01;22.10;;;11.70;;
5245;SDS011;54412;51.206;6.888;2023-02-15T14:49:42;15.47;;;10.37;;
5245;SDS011;54412;51.206;6.888;2023-02-15T14:52:11;14.93;;;10.30;;
5245;SDS011;54412;51.206;6.888;2023-02-15T15:04:35;25.33;;;11.30;;
5245;SDS011;54412;51.206;6.888;2023-02-15T15:10:48;16.63;;;10.03;;
5245;SDS011;54412;51.206;6.888;2023-02-15T15:12:43;20.03;;;10.57;;
5245;SDS011;54412;51.206;6.888;2023-02-15T15:15:11;18.97;;;10.87;;
5245;SDS011;54412;51.206;6.888;2023-02-15T15:18:02;18.80;;;10.90;;
5245;SDS011;54412;51.206;6.888;2023-02-15T15:25:41;16.23;;;9.80;;
5245;SDS011;54412;51.206;6.888;2023-02-15T15:31:08;19.03;;;10.10;;
5245;SDS011;54412;51.206;6.888;2023-02-15T15:37:28;20.47;;;11.30;;
5245;SDS011;54412;51.206;6.888;2023-02-15T15:40:30;17.40;;;9.33;;
5245;SDS011;54412;51.206;6.888;2023-02-15T15:49:08;22.40;;;10.60;;
5245;SDS011;54412;51.206;6.888;2023-02-15T15:51:43;20.00;;;11.70;;
5245;SDS011;54412;51.206;6.888;2023-02-15T15:54:14;15.73;;;10.13;;
5245;SDS011;54412;51.206;6.888;2023-02-15T15:56:59;17.40;;;10.30;;
5245;SDS011;54412;51.206;6.888;2023-02-15T15:59:29;17.00;;;10.93;;
5245;SDS011;54412;51.206;6.888;2023-02-15T16:02:06;21.77;;;11.43;;
5245;SDS011;54412;51.206;6.888;2023-02-15T16:04:42;25.67;;;10.57;;
5245;SDS011;54412;51.206;6.888;2023-02-15T16:07:20;23.07;;;11.33;;
5245;SDS011;54412;51.206;6.888;2023-02-15T16:12:34;16.43;;;10.23;;
5245;SDS011;54412;51.206;6.888;2023-02-15T16:15:17;20.20;;;11.33;;
5245;SDS011;54412;51.206;6.888;2023-02-15T16:17:49;16.43;;;10.80;;
5245;SDS011;54412;51.206;6.888;2023-02-15T16:20:24;17.70;;;11.37;;
5245;SDS011;54412;51.206;6.888;2023-02-15T16:22:57;16.20;;;10.07;;
5245;SDS011;54412;51.206;6.888;2023-02-15T16:26:11;17.53;;;10.97;;
5245;SDS011;54412;51.206;6.888;2023-02-15T16:29:01;13.67;;;9.80;;
5245;SDS011;54412;51.206;6.888;2023-02-15T16:31:40;17.13;;;10.50;;
5245;SDS011;54412;51.206;6.888;2023-02-15T16:34:08;18.20;;;10.97;;
5245;SDS011;54412;51.206;6.888;2023-02-15T16:36:42;17.57;;;11.30;;
5245;SDS011;54412;51.206;6.888;2023-02-15T16:39:09;16.73;;;11.50;;
5245;SDS011;54412;51.206;6.888;2023-02-15T16:41:43;18.03;;;10.90;;
5245;SDS011;54412;51.206;6.888;2023-02-15T16:44:20;19.23;;;11.67;;
5245;SDS011;54412;51.206;6.888;2023-02-15T16:46:47;36.57;;;11.40;;
5245;SDS011;54412;51.206;6.888;2023-02-15T16:49:22;17.70;;;11.17;;
5245;SDS011;54412;51.206;6.888;2023-02-15T16:51:56;17.20;;;11.80;;
5245;SDS011;54412;51.206;6.888;2023-02-15T16:54:25;18.33;;;11.00;;
5245;SDS011;54412;51.206;6.888;2023-02-15T16:56:56;21.33;;;11.23;;
5245;SDS011;54412;51.206;6.888;2023-02-15T16:59:27;16.03;;;10.70;;
5245;SDS011;54412;51.206;6.888;2023-02-15T17:02:16;16.37;;;10.60;;
5245;SDS011;54412;51.206;6.888;2023-02-15T17:05:18;23.27;;;10.97;;
5245;SDS011;54412;51.206;6.888;2023-02-15T17:07:50;17.63;;;11.87;;
5245;SDS011;54412;51.206;6.888;2023-02-15T17:10:32;15.17;;;11.27;;
5245;SDS011;54412;51.206;6.888;2023-02-15T17:13:10;13.53;;;9.87;;
5245;SDS011;54412;51.206;6.888;2023-02-15T17:15:41;17.00;;;10.33;;
5245;SDS011;54412;51.206;6.888;2023-02-15T17:18:50;15.07;;;11.27;;
5245;SDS011;54412;51.206;6.888;2023-02-15T17:21:19;15.90;;;11.47;;
5245;SDS011;54412;51.206;6.888;2023-02-15T17:23:51;15.67;;;10.70;;
5245;SDS011;54412;51.206;6.888;2023-02-15T17:26:29;15.37;;;10.67;;
5245;SDS011;54412;51.206;6.888;2023-02-15T17:28:59;18.03;;;11.33;;
5245;SDS011;54412;51.206;6.888;2023-02-15T17:31:44;21.20;;;12.03;;
5245;SDS011;54412;51.206;6.888;2023-02-15T17:37:26;17.63;;;11.87;;
5245;SDS011;54412;51.206;6.888;2023-02-15T17:40:20;17.63;;;12.33;;
5245;SDS011;54412;51.206;6.888;2023-02-15T17:42:49;14.20;;;10.33;;
5245;SDS011;54412;51.206;6.888;2023-02-15T17:45:15;19.40;;;12.27;;
5245;SDS011;54412;51.206;6.888;2023-02-15T17:47:42;17.00;;;11.27;;
5245;SDS011;54412;51.206;6.888;2023-02-15T17:50:10;16.47;;;10.93;;
5245;SDS011;54412;51.206;6.888;2023-02-15T17:52:47;17.40;;;11.40;;
5245;SDS011;54412;51.206;6.888;2023-02-15T17:55:14;18.07;;;12.13;;
5245;SDS011;54412;51.206;6.888;2023-02-15T17:58:02;20.90;;;12.20;;
5245;SDS011;54412;51.206;6.888;2023-02-15T18:00:32;15.27;;;11.83;;
5245;SDS011;54412;51.206;6.888;2023-02-15T18:03:21;18.03;;;12.77;;
5245;SDS011;54412;51.206;6.888;2023-02-15T18:06:14;14.40;;;11.03;;
5245;SDS011;54412;51.206;6.888;2023-02-15T18:08:59;17.27;;;12.23;;
5245;SDS011;54412;51.206;6.888;2023-02-15T18:11:43;17.70;;;12.60;;
5245;SDS011;54412;51.206;6.888;2023-02-15T18:14:12;17.00;;;11.83;;